Weather History for KRKD - April, 2013

Change the Weather History Date:

Saturday, April 6, 2013

  Actual Average Record
Temperature  
Mean Temperature 32 °F -  
Max Temperature 39 °F 44 °F 53 °F (2005)
Min Temperature 26 °F 29 °F 21 °F (2015)
Degree Days  
Heating Degree Days 32    
Moisture  
Dew Point 8 °F    
Average Humidity 38    
Maximum Humidity 56    
Minimum Humidity 21    
Precipitation  
Precipitation 0.00 in - - ()
Sea Level Pressure  
Sea Level Pressure 30.07 in    
Wind  
Wind Speed 10 mph (WNW)    
Max Wind Speed 23 mph    
Max Gust Speed 32 mph    
Visibility 10 miles    
Events      
Averages and records for this station are not official NWS values.
T = Trace of Precipitation, MM = Missing Value Source: NWS Daily Summary

Daily Weather History Graph

Daily Weather History Graph

Search for Another Location

Airport or City:

Trip Planner

Search our weather history database for the weather conditions in past years. The results will help you decide how hot, cold, wet, or windy it might be!

Date:

Astronomy

Apr. 06, 2013 Rise Set
Actual Time 6:08 AM EDT 7:09 PM EDT
Civil Twilight 5:38 AM EDT 7:39 PM EDT
Nautical Twilight 5:03 AM EDT 8:14 PM EDT
Astronomical Twilight 4:26 AM EDT 8:51 PM EDT
Moon 3:57 AM EDT (4/6) 3:28 PM EDT (4/6)
Length of Visible Light 14h 00m
Length of Day
13h 01m
Waning Crescent, 15% of the Moon is Illuminated
Apr 6
Waning Crescent
Apr 10
New
Apr 18
First Quarter
Apr 25
Full
May 2
Last Quarter

Hourly Weather History & Observations

Time (EDT) Temp. Windchill Dew Point Humidity Pressure Visibility Wind Dir Wind Speed Gust Speed Precip Events Conditions
12:15 AM 37.4 °F 32.8 °F 21.2 °F 52% 29.77 in 10.0 mi NW 5.8 mph - N/A   Clear
12:35 AM 35.6 °F 29.9 °F 19.4 °F 52% 29.78 in 10.0 mi NW 6.9 mph 16.1 mph N/A   Clear
12:55 AM 35.6 °F 30.7 °F 19.4 °F 52% 29.79 in 10.0 mi NW 5.8 mph - N/A   Clear
1:15 AM 35.6 °F 29.2 °F 19.4 °F 52% 29.79 in 10.0 mi NW 8.1 mph - N/A   Clear
1:35 AM 35.6 °F 28.0 °F 19.4 °F 52% 29.80 in 10.0 mi WNW 10.4 mph 19.6 mph N/A   Clear
1:55 AM 35.6 °F 29.2 °F 19.4 °F 52% 29.80 in 10.0 mi NW 8.1 mph 18.4 mph N/A   Mostly Cloudy
2:15 AM 33.8 °F 24.8 °F 19.4 °F 56% 29.82 in 10.0 mi NW 12.7 mph 20.7 mph N/A   Overcast
2:35 AM 33.8 °F 23.9 °F 15.8 °F 48% 29.82 in 10.0 mi WNW 15.0 mph 20.7 mph N/A   Overcast
2:55 AM 33.8 °F 24.3 °F 14.0 °F 44% 29.82 in 10.0 mi WNW 13.8 mph 21.9 mph N/A   Scattered Clouds
3:15 AM 33.8 °F 24.3 °F 12.2 °F 41% 29.83 in 10.0 mi NW 13.8 mph 26.5 mph N/A   Clear
3:35 AM 32.0 °F 24.8 °F 15.8 °F 51% 29.84 in 10.0 mi WNW 8.1 mph 18.4 mph N/A   Clear
3:55 AM 32.0 °F 23.0 °F 14.0 °F 48% 29.85 in 10.0 mi WNW 11.5 mph 17.3 mph N/A   Clear
4:15 AM 30.2 °F 20.8 °F 15.8 °F 55% 29.86 in 10.0 mi NW 11.5 mph 18.4 mph N/A   Clear
4:35 AM 30.2 °F 20.2 °F 15.8 °F 55% 29.87 in 10.0 mi WNW 12.7 mph 20.7 mph N/A   Clear
4:55 AM 30.2 °F 21.9 °F 14.0 °F 51% 29.88 in 10.0 mi WNW 9.2 mph - N/A   Scattered Clouds
5:15 AM 30.2 °F 20.8 °F 12.2 °F 47% 29.90 in 10.0 mi WNW 11.5 mph 20.7 mph N/A   Mostly Cloudy
5:35 AM 30.2 °F 21.9 °F 12.2 °F 47% 29.91 in 10.0 mi WNW 9.2 mph 17.3 mph N/A   Mostly Cloudy
5:55 AM 30.2 °F 20.8 °F 15.8 °F 55% 29.93 in 10.0 mi WNW 11.5 mph 20.7 mph N/A   Overcast
6:15 AM 30.2 °F 19.8 °F 8.6 °F 40% 29.95 in 10.0 mi WNW 13.8 mph 23.0 mph N/A   Mostly Cloudy
6:35 AM 28.4 °F 15.8 °F 8.6 °F 43% 29.96 in 10.0 mi WNW 18.4 mph 25.3 mph N/A   Partly Cloudy
6:55 AM 28.4 °F 15.4 °F 6.8 °F 40% 29.98 in 10.0 mi WNW 19.6 mph 29.9 mph N/A   Clear
7:15 AM 28.4 °F 18.0 °F 8.6 °F 43% 30.00 in 10.0 mi WNW 12.7 mph 27.6 mph N/A   Clear
7:35 AM 28.4 °F 18.5 °F 8.6 °F 43% 30.01 in 10.0 mi WNW 11.5 mph 26.5 mph N/A   Clear
7:55 AM 28.4 °F 17.0 °F 6.8 °F 40% 30.02 in 10.0 mi WNW 15.0 mph 32.2 mph N/A   Clear
8:15 AM 28.4 °F 17.0 °F 6.8 °F 40% 30.03 in 10.0 mi NW 15.0 mph 27.6 mph N/A   Partly Cloudy
8:35 AM 28.4 °F 14.4 °F 8.6 °F 43% 30.03 in 10.0 mi West 23.0 mph 31.1 mph N/A   Partly Cloudy
8:55 AM 28.4 °F 18.0 °F 8.6 °F 43% 30.03 in 10.0 mi WNW 12.7 mph 28.8 mph N/A   Clear
9:15 AM 28.4 °F 17.5 °F 6.8 °F 40% 30.04 in 10.0 mi WNW 13.8 mph 27.6 mph N/A   Clear
9:35 AM 28.4 °F 16.6 °F 6.8 °F 40% 30.05 in 10.0 mi WNW 16.1 mph 27.6 mph N/A   Clear
9:55 AM 30.2 °F 20.8 °F 6.8 °F 37% 30.06 in 10.0 mi NW 11.5 mph 28.8 mph N/A   Clear
10:15 AM 30.2 °F 18.1 °F 5.0 °F 34% 30.07 in 10.0 mi WNW 18.4 mph 25.3 mph N/A   Clear
10:35 AM 30.2 °F 18.9 °F 6.8 °F 37% 30.08 in 10.0 mi WNW 16.1 mph 28.8 mph N/A   Clear
10:55 AM 32.0 °F 21.2 °F 6.8 °F 35% 30.08 in 10.0 mi WNW 16.1 mph 28.8 mph N/A   Clear
11:35 AM 33.8 °F 23.5 °F 6.8 °F 32% 30.09 in 10.0 mi NW 16.1 mph 27.6 mph N/A   Clear
11:55 AM 33.8 °F 24.3 °F 5.0 °F 30% 30.10 in 10.0 mi NW 13.8 mph 25.3 mph N/A   Clear
12:15 PM 33.8 °F 23.2 °F 5.0 °F 30% 30.10 in 10.0 mi NW 17.3 mph 26.5 mph N/A   Clear
12:35 PM 35.6 °F 27.1 °F 3.2 °F 26% 30.10 in 10.0 mi NNW 12.7 mph 24.2 mph N/A   Clear
12:55 PM 35.6 °F 26.2 °F 6.8 °F 30% 30.10 in 10.0 mi WNW 15.0 mph 24.2 mph N/A   Clear
1:15 PM 37.4 °F 28.9 °F 3.2 °F 24% 30.11 in 10.0 mi West 13.8 mph 24.2 mph N/A   Clear
1:35 PM 35.6 °F 26.6 °F 6.8 °F 30% 30.12 in 10.0 mi WNW 13.8 mph 31.1 mph N/A   Clear
1:55 PM 35.6 °F 28.6 °F 3.2 °F 26% 30.12 in 10.0 mi NW 9.2 mph 25.3 mph N/A   Clear
2:15 PM 37.4 °F 29.3 °F 5.0 °F 26% 30.12 in 10.0 mi West 12.7 mph 24.2 mph N/A   Clear
2:35 PM 37.4 °F 28.5 °F 1.4 °F 22% 30.13 in 10.0 mi WNW 15.0 mph 25.3 mph N/A   Clear
2:55 PM 37.4 °F 28.5 °F 3.2 °F 24% 30.13 in 10.0 mi WNW 15.0 mph 25.3 mph N/A   Clear
3:15 PM 39.2 °F 30.8 °F 3.2 °F 22% 30.13 in 10.0 mi WNW 15.0 mph 19.6 mph N/A   Clear
3:35 PM 37.4 °F 28.5 °F 3.2 °F 24% 30.13 in 10.0 mi WNW 15.0 mph 26.5 mph N/A   Clear
3:55 PM 39.2 °F 30.5 °F 1.4 °F 21% 30.14 in 10.0 mi WNW 16.1 mph 27.6 mph N/A   Clear
4:15 PM 39.2 °F 31.6 °F 1.4 °F 21% 30.14 in 10.0 mi WNW 12.7 mph 20.7 mph N/A   Clear
4:35 PM 39.2 °F 30.5 °F 1.4 °F 21% 30.14 in 10.0 mi WNW 16.1 mph 23.0 mph N/A   Clear
4:55 PM 39.2 °F 32.5 °F 1.4 °F 21% 30.16 in 10.0 mi WNW 10.4 mph 25.3 mph N/A   Clear
5:15 PM 39.2 °F 31.6 °F 1.4 °F 21% 30.17 in 10.0 mi West 12.7 mph 20.7 mph N/A   Clear
5:35 PM 39.2 °F 32.5 °F 1.4 °F 21% 30.17 in 10.0 mi WNW 10.4 mph - N/A   Clear
5:55 PM 39.2 °F 32.5 °F 1.4 °F 21% 30.19 in 10.0 mi WNW 10.4 mph 17.3 mph N/A   Clear
6:15 PM 37.4 °F 30.3 °F 1.4 °F 22% 30.20 in 10.0 mi West 10.4 mph - N/A   Clear
6:35 PM 37.4 °F 30.3 °F 1.4 °F 22% 30.21 in 10.0 mi WNW 10.4 mph - N/A   Clear
6:55 PM 37.4 °F 32.8 °F 1.4 °F 22% 30.22 in 10.0 mi West 5.8 mph - N/A   Clear
7:15 PM 35.6 °F 29.2 °F 3.2 °F 26% 30.23 in 10.0 mi WNW 8.1 mph - N/A   Clear
7:35 PM 35.6 °F 32.8 °F 3.2 °F 26% 30.25 in 10.0 mi WNW 3.5 mph - N/A   Clear
8:15 PM 32.0 °F - 3.2 °F 30% 30.28 in 10.0 mi Calm Calm - N/A   Clear
8:35 PM 30.2 °F - 3.2 °F 32% 30.29 in 10.0 mi Calm Calm - N/A   Clear
8:55 PM 32.0 °F 28.7 °F 8.6 °F 38% 30.30 in 10.0 mi WNW 3.5 mph - N/A   Clear
9:15 PM 30.2 °F 26.7 °F 10.4 °F 44% 30.31 in 10.0 mi NW 3.5 mph - N/A   Clear
9:35 PM 28.4 °F - 10.4 °F 47% 30.32 in 10.0 mi Calm Calm - N/A   Clear
9:55 PM 28.4 °F 24.6 °F 8.6 °F 43% 30.32 in 10.0 mi WSW 3.5 mph - N/A   Clear
10:15 PM 26.6 °F - 8.6 °F 47% 30.33 in 10.0 mi Calm Calm - N/A   Clear
10:35 PM 26.6 °F - 10.4 °F 51% 30.33 in 10.0 mi Calm Calm - N/A   Clear
10:55 PM 28.4 °F 23.3 °F 8.6 °F 43% 30.33 in 10.0 mi NNW 4.6 mph - N/A   Clear
11:15 PM 26.6 °F 22.6 °F 8.6 °F 47% 30.33 in 10.0 mi NNW 3.5 mph - N/A   Clear
11:35 PM 26.6 °F - 12.2 °F 55% 30.34 in 10.0 mi Calm Calm - N/A   Clear
11:55 PM 26.6 °F - 10.4 °F 51% 30.34 in 10.0 mi Calm Calm - N/A   Clear